createdAt,value
2022-10-07T00:01:01.489Z,8.00
2022-10-07T00:03:30.089Z,8.00
2022-10-07T00:06:05.970Z,8.00
2022-10-07T00:08:36.129Z,8.00
2022-10-07T00:11:11.102Z,8.00
2022-10-07T00:13:40.598Z,7.90
2022-10-07T00:16:30.288Z,7.90
2022-10-07T00:19:00.842Z,7.90
2022-10-07T00:21:32.743Z,7.90
2022-10-07T00:24:01.062Z,7.80
2022-10-07T00:26:31.503Z,7.90
2022-10-07T00:28:59.190Z,7.80
2022-10-07T00:31:30.414Z,7.80
2022-10-07T00:33:58.522Z,7.70
2022-10-07T00:36:32.391Z,7.70
2022-10-07T00:39:06.038Z,7.70
2022-10-07T00:41:48.250Z,7.70
2022-10-07T00:44:45.707Z,7.70
2022-10-07T00:47:31.348Z,7.70
2022-10-07T00:50:03.195Z,7.70
2022-10-07T00:52:35.313Z,7.60
2022-10-07T00:55:10.293Z,7.60
2022-10-07T00:57:38.467Z,7.60
2022-10-07T01:00:07.835Z,7.60
2022-10-07T01:02:36.919Z,7.60
2022-10-07T01:05:23.961Z,7.50
2022-10-07T01:07:53.986Z,7.50
2022-10-07T01:10:24.382Z,7.50
2022-10-07T01:13:23.932Z,7.40
2022-10-07T01:16:12.763Z,7.40
2022-10-07T01:19:07.748Z,7.40
2022-10-07T01:22:21.288Z,7.40
2022-10-07T01:25:26.839Z,7.40
2022-10-07T01:28:01.280Z,7.30
2022-10-07T01:30:31.803Z,7.30
2022-10-07T01:33:05.006Z,7.30
2022-10-07T01:35:35.637Z,7.30
2022-10-07T01:38:09.839Z,7.30
2022-10-07T01:40:57.133Z,7.20
2022-10-07T01:43:24.969Z,7.10
2022-10-07T01:45:53.540Z,7.10
2022-10-07T01:48:20.722Z,7.10
2022-10-07T01:50:51.141Z,7.10
2022-10-07T01:53:56.557Z,7.10
2022-10-07T01:56:46.387Z,7.10
2022-10-07T01:59:51.278Z,7.10
2022-10-07T02:02:43.563Z,7.00
2022-10-07T02:05:54.026Z,6.90
2022-10-07T02:08:46.842Z,6.90
2022-10-07T02:11:23.909Z,6.90
2022-10-07T02:14:00.072Z,6.90
2022-10-07T02:16:44.751Z,6.80
2022-10-07T02:19:36.624Z,6.80
2022-10-07T02:22:06.044Z,6.80
2022-10-07T02:24:35.694Z,6.80
2022-10-07T02:27:13.892Z,6.70
2022-10-07T02:29:45.476Z,6.70
2022-10-07T02:32:19.110Z,6.70
2022-10-07T02:34:52.897Z,6.80
2022-10-07T02:37:26.071Z,6.70
2022-10-07T02:39:55.308Z,6.70
2022-10-07T02:43:00.354Z,6.70
2022-10-07T02:46:02.251Z,6.70
2022-10-07T02:48:36.712Z,6.70
2022-10-07T02:51:10.675Z,6.70
2022-10-07T02:53:39.657Z,6.70
2022-10-07T02:56:08.048Z,6.70
2022-10-07T02:58:36.507Z,6.70
2022-10-07T03:01:06.017Z,6.70
2022-10-07T03:03:33.197Z,6.60
2022-10-07T03:06:05.172Z,6.60
2022-10-07T03:08:33.226Z,6.50
2022-10-07T03:11:01.274Z,6.50
2022-10-07T03:13:29.479Z,6.50
2022-10-07T03:16:00.952Z,6.40
2022-10-07T03:18:29.655Z,6.40
2022-10-07T03:21:11.998Z,6.40
2022-10-07T03:23:39.141Z,6.40
2022-10-07T03:26:06.493Z,6.40
2022-10-07T03:28:38.042Z,6.40
2022-10-07T03:31:12.185Z,6.30
2022-10-07T03:33:44.691Z,6.40
2022-10-07T03:36:13.316Z,6.30
2022-10-07T03:38:42.901Z,6.30
2022-10-07T03:41:11.801Z,6.30
2022-10-07T03:43:39.353Z,6.30
2022-10-07T03:46:07.604Z,6.30
2022-10-07T03:48:37.057Z,6.30
2022-10-07T03:51:04.323Z,6.30
2022-10-07T03:53:34.007Z,6.20
2022-10-07T03:56:02.208Z,6.20
2022-10-07T03:58:30.947Z,6.20
2022-10-07T04:01:08.679Z,6.20
2022-10-07T04:03:37.929Z,6.10
2022-10-07T04:06:06.143Z,6.10
2022-10-07T04:08:35.245Z,6.10
2022-10-07T04:11:04.988Z,6.10
2022-10-07T04:13:34.155Z,6.10
2022-10-07T04:16:11.346Z,6.10
2022-10-07T04:18:39.028Z,6.10
2022-10-07T04:21:07.430Z,6.10
2022-10-07T04:23:37.002Z,6.10
2022-10-07T04:26:09.887Z,6.00
2022-10-07T04:28:38.779Z,6.00
2022-10-07T04:31:12.963Z,6.00
2022-10-07T04:33:44.128Z,6.00
2022-10-07T04:36:13.950Z,6.10
2022-10-07T04:38:50.515Z,6.10
2022-10-07T04:41:20.253Z,6.00
2022-10-07T04:43:57.375Z,6.00
2022-10-07T04:46:28.495Z,6.00
2022-10-07T04:49:01.336Z,5.90
2022-10-07T04:51:31.272Z,5.90
2022-10-07T04:53:59.894Z,6.00
2022-10-07T04:56:35.666Z,6.00
2022-10-07T04:59:06.087Z,6.00
2022-10-07T05:01:33.875Z,6.10
2022-10-07T05:04:01.092Z,6.20
2022-10-07T05:06:29.876Z,6.20
2022-10-07T05:08:56.923Z,6.20
2022-10-07T05:11:25.970Z,6.30
2022-10-07T05:14:06.110Z,6.30
2022-10-07T05:16:33.412Z,6.20
2022-10-07T05:19:00.592Z,6.30
2022-10-07T05:21:28.206Z,6.30
2022-10-07T05:23:55.283Z,6.30
2022-10-07T05:26:28.706Z,6.20
2022-10-07T05:28:58.803Z,6.20
2022-10-07T05:31:32.610Z,6.20
2022-10-07T05:34:02.945Z,6.30
2022-10-07T05:36:30.487Z,6.30
2022-10-07T05:38:59.713Z,6.30
2022-10-07T05:41:45.535Z,6.30
2022-10-07T05:44:14.236Z,6.30
2022-10-07T05:46:42.428Z,6.40
2022-10-07T05:49:10.191Z,6.50
2022-10-07T05:51:37.481Z,6.60
2022-10-07T05:54:05.970Z,6.60
2022-10-07T05:56:39.646Z,6.60
2022-10-07T05:59:07.333Z,6.70
2022-10-07T06:01:34.786Z,6.80
2022-10-07T06:04:08.177Z,6.90
2022-10-07T06:06:38.779Z,6.90
2022-10-07T06:09:27.540Z,7.00
2022-10-07T06:12:14.183Z,7.00
2022-10-07T06:14:42.124Z,7.10
2022-10-07T06:17:09.929Z,7.20
2022-10-07T06:19:38.306Z,7.30
2022-10-07T06:22:05.889Z,7.40
2022-10-07T06:24:35.451Z,7.50
2022-10-07T06:27:03.547Z,7.60
2022-10-07T06:29:31.414Z,7.70
2022-10-07T06:31:59.721Z,7.80
2022-10-07T06:34:27.686Z,7.90
2022-10-07T06:36:58.047Z,8.00
2022-10-07T06:39:25.846Z,8.10
2022-10-07T06:41:54.622Z,8.20
2022-10-07T06:44:39.657Z,8.40
2022-10-07T06:47:11.864Z,8.60
2022-10-07T06:49:40.755Z,8.70
2022-10-07T06:52:07.826Z,9.00
2022-10-07T06:54:35.786Z,9.00
2022-10-07T06:57:15.421Z,9.10
2022-10-07T06:59:51.688Z,9.30
2022-10-07T07:02:19.644Z,9.40
2022-10-07T07:04:47.794Z,9.40
2022-10-07T07:07:15.266Z,9.70
2022-10-07T07:09:42.476Z,9.70
2022-10-07T07:12:11.255Z,9.80
2022-10-07T07:14:44.194Z,10.00
2022-10-07T07:17:16.048Z,10.10
2022-10-07T07:19:43.127Z,10.30
2022-10-07T07:22:10.320Z,10.50
2022-10-07T07:24:38.977Z,10.80
2022-10-07T07:27:06.754Z,10.90
2022-10-07T07:29:34.333Z,10.90
2022-10-07T07:32:04.503Z,11.20
2022-10-07T07:34:38.177Z,11.40
2022-10-07T07:37:07.149Z,11.40
2022-10-07T07:39:39.327Z,11.60
2022-10-07T07:42:12.621Z,11.80
2022-10-07T07:44:40.201Z,12.00
2022-10-07T07:47:12.811Z,12.20
2022-10-07T07:49:40.276Z,12.20
2022-10-07T07:52:10.730Z,12.20
2022-10-07T07:54:43.880Z,12.20
2022-10-07T07:57:11.823Z,12.50
2022-10-07T07:59:39.075Z,12.40
2022-10-07T08:02:08.028Z,12.50
2022-10-07T08:04:37.752Z,12.50
2022-10-07T08:07:05.400Z,12.60
2022-10-07T08:09:33.015Z,12.90
2022-10-07T08:12:00.559Z,12.90
2022-10-07T08:14:28.195Z,13.00
2022-10-07T08:16:57.439Z,13.30
2022-10-07T08:19:29.523Z,13.40
2022-10-07T08:21:58.235Z,13.40
2022-10-07T08:24:27.593Z,13.60
2022-10-07T08:26:54.792Z,13.60
2022-10-07T08:29:22.974Z,13.80
2022-10-07T08:31:50.320Z,13.80
2022-10-07T08:34:17.363Z,14.10
2022-10-07T08:36:47.399Z,14.30
2022-10-07T08:39:15.458Z,14.40
2022-10-07T08:42:36.704Z,14.40
2022-10-07T08:45:08.549Z,14.30
2022-10-07T08:47:45.446Z,14.30
2022-10-07T08:50:45.855Z,14.30
2022-10-07T08:53:21.361Z,14.60
2022-10-07T08:56:07.903Z,14.60
2022-10-07T08:58:52.045Z,14.80
2022-10-07T09:01:53.259Z,15.10
2022-10-07T09:04:54.765Z,15.30
2022-10-07T09:07:48.208Z,15.20
2022-10-07T09:10:31.584Z,15.20
2022-10-07T09:13:14.159Z,15.20
2022-10-07T09:16:00.663Z,15.00
2022-10-07T09:18:41.144Z,15.10
2022-10-07T09:21:17.195Z,15.40
2022-10-07T09:23:45.840Z,15.70
2022-10-07T09:26:16.847Z,15.70
2022-10-07T09:28:44.081Z,15.80
2022-10-07T09:31:15.370Z,15.90
2022-10-07T09:33:45.871Z,15.90
2022-10-07T09:36:18.283Z,15.90
2022-10-07T09:38:49.782Z,16.10
2022-10-07T09:41:21.452Z,16.30
2022-10-07T09:44:16.446Z,16.50
2022-10-07T09:46:53.670Z,16.50
2022-10-07T09:49:29.597Z,16.50
2022-10-07T09:52:06.463Z,16.60
2022-10-07T09:54:36.084Z,16.80
2022-10-07T09:57:05.672Z,16.80
2022-10-07T09:59:37.396Z,16.70
2022-10-07T10:02:13.857Z,16.90
2022-10-07T10:04:57.361Z,17.00
2022-10-07T10:07:36.120Z,17.10
2022-10-07T10:10:06.676Z,17.20
2022-10-07T10:12:45.676Z,17.30
2022-10-07T10:15:39.607Z,17.30
2022-10-07T10:18:36.239Z,17.50
2022-10-07T10:21:36.690Z,17.60
2022-10-07T10:24:10.425Z,17.50
2022-10-07T10:27:01.606Z,17.50
2022-10-07T10:29:42.474Z,17.70
2022-10-07T10:32:33.979Z,17.70
2022-10-07T10:35:09.923Z,18.00
2022-10-07T10:38:23.407Z,18.10
2022-10-07T10:41:06.506Z,18.20
2022-10-07T10:44:32.291Z,18.50
2022-10-07T10:47:31.274Z,18.60
2022-10-07T10:50:16.448Z,18.60
2022-10-07T10:53:17.121Z,18.90
2022-10-07T10:56:06.518Z,19.10
2022-10-07T10:59:09.421Z,19.40
2022-10-07T11:01:43.030Z,19.30
2022-10-07T11:04:41.342Z,19.50
2022-10-07T11:07:25.668Z,19.70
2022-10-07T11:10:06.265Z,20.10
2022-10-07T11:12:42.093Z,20.80
2022-10-07T11:15:32.824Z,21.30
2022-10-07T11:18:10.600Z,22.20
2022-10-07T11:20:48.195Z,24.10
2022-10-07T11:24:11.688Z,26.10
2022-10-07T11:26:57.390Z,27.30
2022-10-07T11:29:48.387Z,27.90
2022-10-07T11:32:26.975Z,28.10
2022-10-07T11:35:45.103Z,27.40
2022-10-07T11:38:14.831Z,27.30
2022-10-07T11:40:54.892Z,27.10
2022-10-07T11:43:38.203Z,26.30
2022-10-07T11:46:33.480Z,25.90
2022-10-07T11:49:36.314Z,26.70
2022-10-07T11:52:08.096Z,28.80
2022-10-07T11:55:00.701Z,29.10
2022-10-07T11:57:36.602Z,29.70
2022-10-07T12:00:31.900Z,31.40
2022-10-07T12:03:17.871Z,32.10
2022-10-07T12:05:51.309Z,31.80
2022-10-07T12:08:35.597Z,32.50
2022-10-07T12:11:12.459Z,33.20
2022-10-07T12:13:45.632Z,33.20
2022-10-07T12:16:31.418Z,33.10
2022-10-07T12:19:10.793Z,32.00
2022-10-07T12:21:59.693Z,32.30
2022-10-07T12:24:28.435Z,32.90
2022-10-07T12:26:58.010Z,32.50
2022-10-07T12:29:34.166Z,31.40
2022-10-07T12:32:01.811Z,32.80
2022-10-07T12:34:40.237Z,33.60
2022-10-07T12:37:39.024Z,33.70
2022-10-07T12:40:18.280Z,31.70
2022-10-07T12:42:55.942Z,31.90
2022-10-07T12:45:27.049Z,31.80
2022-10-07T12:47:58.305Z,31.00
2022-10-07T12:50:26.970Z,31.50
2022-10-07T12:52:56.848Z,31.10
2022-10-07T12:55:32.533Z,30.80
2022-10-07T12:58:20.407Z,30.50
2022-10-07T13:01:33.966Z,31.60
2022-10-07T13:04:42.253Z,31.50
2022-10-07T13:07:46.291Z,30.90
2022-10-07T13:10:37.976Z,31.60
2022-10-07T13:13:26.239Z,32.00
2022-10-07T13:16:22.116Z,30.80
2022-10-07T13:19:03.278Z,29.50
2022-10-07T13:21:51.971Z,30.70
2022-10-07T13:24:24.986Z,29.50
2022-10-07T13:26:52.350Z,30.30
2022-10-07T13:29:30.911Z,29.80
2022-10-07T13:32:17.971Z,30.50
2022-10-07T13:34:46.467Z,28.40
2022-10-07T13:37:30.423Z,29.20
2022-10-07T13:40:19.727Z,28.50
2022-10-07T13:42:54.652Z,28.80
2022-10-07T13:45:22.229Z,29.90
2022-10-07T13:47:50.087Z,29.80
2022-10-07T13:50:23.074Z,29.40
2022-10-07T13:52:51.696Z,28.80
2022-10-07T13:55:34.304Z,29.70
2022-10-07T13:58:05.450Z,29.30
2022-10-07T14:00:44.728Z,30.30
2022-10-07T14:03:17.061Z,30.10
2022-10-07T14:05:53.097Z,29.50
2022-10-07T14:08:24.333Z,29.90
2022-10-07T14:11:18.934Z,31.20
2022-10-07T14:13:46.046Z,30.80
2022-10-07T14:16:22.222Z,31.10
2022-10-07T14:18:50.617Z,30.50
2022-10-07T14:21:18.825Z,29.90
2022-10-07T14:23:47.095Z,30.50
2022-10-07T14:26:16.211Z,30.10
2022-10-07T14:28:43.700Z,31.20
2022-10-07T14:31:39.862Z,31.60
2022-10-07T14:34:38.502Z,31.70
2022-10-07T14:37:19.518Z,31.00
2022-10-07T14:39:50.007Z,30.90
2022-10-07T14:42:36.328Z,30.40
2022-10-07T14:45:08.263Z,31.30
2022-10-07T14:47:38.161Z,31.80
2022-10-07T14:50:06.087Z,30.60
2022-10-07T14:52:44.323Z,29.40
2022-10-07T14:55:29.546Z,28.10
2022-10-07T14:57:56.571Z,26.50
2022-10-07T15:00:34.891Z,25.30
2022-10-07T15:03:06.101Z,24.80
2022-10-07T15:05:33.635Z,24.40
2022-10-07T15:08:01.651Z,24.30
2022-10-07T15:10:28.797Z,24.10
2022-10-07T15:12:59.599Z,23.70
2022-10-07T15:15:26.609Z,23.30
2022-10-07T15:17:53.787Z,22.90
2022-10-07T15:20:21.324Z,22.60
2022-10-07T15:22:50.757Z,22.40
2022-10-07T15:25:19.395Z,22.10
2022-10-07T15:27:46.505Z,21.70
2022-10-07T15:30:14.389Z,21.60
2022-10-07T15:32:41.534Z,21.50
2022-10-07T17:31:14.912Z,17.50
2022-10-07T17:33:43.797Z,17.40
2022-10-07T17:36:12.756Z,17.30
2022-10-07T17:38:43.092Z,17.20
2022-10-07T17:41:32.138Z,17.20
2022-10-07T17:44:02.095Z,17.20
2022-10-07T17:46:33.266Z,17.20
2022-10-07T17:49:02.157Z,17.20
2022-10-07T17:51:32.340Z,17.20
2022-10-07T17:54:01.992Z,17.20
2022-10-07T17:56:32.045Z,17.10
2022-10-07T17:58:59.733Z,17.10
2022-10-07T18:01:31.176Z,17.00
2022-10-07T18:04:05.333Z,16.80
2022-10-07T18:06:36.050Z,16.60
2022-10-07T18:09:09.263Z,16.50
2022-10-07T18:11:55.489Z,16.40
2022-10-07T18:14:41.763Z,16.30
2022-10-07T18:17:10.690Z,16.20
2022-10-07T18:19:39.749Z,16.00
2022-10-07T18:22:07.327Z,15.90
2022-10-07T18:24:34.879Z,15.80
2022-10-07T18:27:03.171Z,15.70
2022-10-07T18:29:33.674Z,15.60
2022-10-07T18:32:01.519Z,15.50
2022-10-07T18:34:28.731Z,15.30
2022-10-07T18:36:57.221Z,15.20
2022-10-07T18:39:29.504Z,15.00
2022-10-07T18:41:57.965Z,15.00
2022-10-07T18:44:25.592Z,14.90
2022-10-07T18:46:53.432Z,14.70
2022-10-07T18:49:20.468Z,14.60
2022-10-07T18:51:50.666Z,14.60
2022-10-07T18:54:21.257Z,14.50
2022-10-07T18:56:49.575Z,14.40
2022-10-07T18:59:18.474Z,14.40
2022-10-07T19:01:50.124Z,14.40
2022-10-07T19:04:18.213Z,14.30
2022-10-07T19:06:46.210Z,14.20
2022-10-07T19:09:18.620Z,14.20
2022-10-07T19:11:46.022Z,14.10
2022-10-07T19:14:14.055Z,14.10
2022-10-07T19:16:48.999Z,14.10
2022-10-07T19:19:22.630Z,14.00
2022-10-07T19:21:53.887Z,13.90
2022-10-07T19:24:41.972Z,13.80
2022-10-07T19:27:09.144Z,13.70
2022-10-07T19:29:36.168Z,13.70
2022-10-07T19:32:07.814Z,13.60
2022-10-07T19:34:35.603Z,13.60
2022-10-07T19:37:02.891Z,13.60
2022-10-07T19:39:30.629Z,13.60
2022-10-07T19:41:58.838Z,13.60
2022-10-07T19:44:26.120Z,13.60
2022-10-07T19:46:54.334Z,13.50
2022-10-07T19:49:22.339Z,13.50
2022-10-07T19:51:49.414Z,13.50
2022-10-07T19:54:16.445Z,13.50
2022-10-07T19:56:44.525Z,13.50
2022-10-07T19:59:13.994Z,13.50
2022-10-07T20:01:44.300Z,13.50
2022-10-07T20:04:21.895Z,13.50
2022-10-07T20:06:49.307Z,13.40
2022-10-07T20:09:18.785Z,13.40
2022-10-07T20:11:49.557Z,13.40
2022-10-07T20:14:16.641Z,13.40
2022-10-07T20:16:44.122Z,13.30
2022-10-07T20:19:18.494Z,13.30
2022-10-07T20:21:46.272Z,13.30
2022-10-07T20:24:16.227Z,13.20
2022-10-07T20:26:44.370Z,13.20
2022-10-07T20:29:13.862Z,13.10
2022-10-07T20:31:42.615Z,13.00
2022-10-07T20:34:15.101Z,13.00
2022-10-07T20:36:42.739Z,12.90
2022-10-07T20:39:37.779Z,12.90
2022-10-07T20:42:21.307Z,12.80
2022-10-07T20:44:49.858Z,12.70
2022-10-07T20:47:18.007Z,12.70
2022-10-07T20:49:45.278Z,12.60
2022-10-07T20:52:21.860Z,12.60
2022-10-07T20:54:50.202Z,12.50
2022-10-07T20:57:23.872Z,12.50
2022-10-07T20:59:51.353Z,12.50
2022-10-07T21:02:21.502Z,12.50
2022-10-07T21:04:48.675Z,12.50
2022-10-07T21:07:17.213Z,12.50
2022-10-07T21:09:44.857Z,12.40
2022-10-07T21:12:15.794Z,12.40
2022-10-07T21:14:44.205Z,12.40
2022-10-07T21:17:11.972Z,12.40
2022-10-07T21:19:40.082Z,12.40
2022-10-07T21:22:07.934Z,12.40
2022-10-07T21:24:35.399Z,12.40
2022-10-07T21:27:06.124Z,12.30
2022-10-07T21:29:38.922Z,12.30
2022-10-07T21:32:06.454Z,12.30
2022-10-07T21:34:33.497Z,12.30
2022-10-07T21:37:00.658Z,12.20
2022-10-07T21:39:27.767Z,12.20
2022-10-07T21:41:54.943Z,12.20
2022-10-07T21:44:22.001Z,12.20
2022-10-07T21:46:49.194Z,12.10
2022-10-07T21:49:17.170Z,12.10
2022-10-07T21:51:44.742Z,12.10
2022-10-07T21:54:14.265Z,12.10
2022-10-07T21:56:43.670Z,12.10
2022-10-07T21:59:11.367Z,12.00
2022-10-07T22:01:38.854Z,12.00
2022-10-07T22:04:07.236Z,12.00
2022-10-07T22:06:52.714Z,11.90
2022-10-07T22:09:21.389Z,11.90
2022-10-07T22:11:50.294Z,11.90
2022-10-07T22:14:18.931Z,11.90
2022-10-07T22:16:48.376Z,11.80
2022-10-07T22:19:17.439Z,11.90
2022-10-07T22:21:45.766Z,11.80
2022-10-07T22:24:13.900Z,11.80
2022-10-07T22:26:48.187Z,11.80
2022-10-07T22:29:17.614Z,11.80
2022-10-07T22:31:45.169Z,11.70
2022-10-07T22:34:32.759Z,11.70
2022-10-07T22:37:00.022Z,11.60
2022-10-07T22:39:28.857Z,11.60
2022-10-07T22:41:57.109Z,11.60
2022-10-07T22:44:28.713Z,11.60
2022-10-07T22:46:56.709Z,11.50
2022-10-07T22:49:28.620Z,11.50
2022-10-07T22:51:58.360Z,11.50
2022-10-07T22:54:26.292Z,11.50
2022-10-07T22:56:53.492Z,11.50
2022-10-07T22:59:21.254Z,11.50
2022-10-07T23:01:48.250Z,11.50
2022-10-07T23:04:15.275Z,11.50
2022-10-07T23:06:42.511Z,11.40
2022-10-07T23:09:09.594Z,11.30
2022-10-07T23:11:36.606Z,11.30
2022-10-07T23:14:04.395Z,11.30
2022-10-07T23:16:32.439Z,11.20
2022-10-07T23:19:00.061Z,11.20
2022-10-07T23:21:30.103Z,11.20
2022-10-07T23:24:05.946Z,11.20
2022-10-07T23:26:35.549Z,11.10
2022-10-07T23:29:04.302Z,11.10
2022-10-07T23:31:32.817Z,11.10
2022-10-07T23:34:01.931Z,11.10
2022-10-07T23:36:29.635Z,11.10
2022-10-07T23:38:59.449Z,11.10
2022-10-07T23:41:30.077Z,11.10
2022-10-07T23:44:00.083Z,11.00
2022-10-07T23:46:28.797Z,11.00
2022-10-07T23:48:56.372Z,10.90
2022-10-07T23:51:27.859Z,10.90
2022-10-07T23:54:00.373Z,10.80
2022-10-07T23:56:27.661Z,10.70
2022-10-07T23:58:54.746Z,10.70
